Time;durP1;ratioP1;P1;durP2;ratioP2;P2;SDS_P1;SDS_P2;PMS_P1;PMS_P2;Temp;Humidity;BMP_temperature;BMP_pressure;BME280_temperature;BME280_humidity;BME280_pressure;Samples;Min_cycle;Max_cycle;Signal;HPM_P1;HPM_P2
2023/05/30 00:02:06;;;;;;;;;;;;;;;-144.98;100.00;62585.19;5054682;28;19935;-74
2023/05/30 00:05:09;;;;;;;;;;;;;;;-144.98;100.00;62585.19;5054467;28;19924;-75
2023/05/30 00:08:12;;;;;;;;;;;;;;;-144.98;100.00;62585.19;5053409;28;19927;-75
2023/05/30 00:11:18;;;;;;;;;;;;;;;-144.98;100.00;62585.19;5054145;28;20395;-75
2023/05/30 00:14:23;;;;;;;;;;;;;;;-144.98;100.00;62585.19;5053471;28;19928;-75
2023/05/30 00:17:26;;;;;;;;;;;;;;;-144.98;100.00;62585.19;5054536;28;19947;-75
2023/05/30 00:20:29;;;;;;;;;;;;;;;-144.98;100.00;62585.19;5054892;28;20434;-75
2023/05/30 00:23:33;;;;;;;;;;;;;;;-144.98;100.00;62585.19;5053630;28;20308;-75
2023/05/30 00:26:36;;;;;;;;;;;;;;;-144.98;100.00;62585.19;5053180;28;20360;-75
2023/05/30 00:29:38;;;;;;;;;;;;;;;-144.98;100.00;62585.19;5053733;28;19919;-75
2023/05/30 00:32:44;;;;;;;;;;;;;;;-144.98;100.00;62585.19;5041816;28;20384;-75
2023/05/30 00:35:47;;;;;;;;;;;;;;;-144.98;100.00;62585.19;5042098;28;19923;-75
2023/05/30 00:38:50;;;;;;;;;;;;;;;-144.98;100.00;62585.19;5054320;28;19919;-75
2023/05/30 00:41:53;;;;;;;;;;;;;;;-144.98;100.00;62585.19;5052722;28;19971;-75
2023/05/30 00:44:56;;;;;;;;;;;;;;;-144.98;100.00;62585.19;5053466;28;19919;-76
2023/05/30 00:48:00;;;;;;;;;;;;;;;-144.98;100.00;62585.19;5053371;28;19971;-75
2023/05/30 00:51:05;;;;;;;;;;;;;;;-144.98;100.00;62585.19;5054221;28;20419;-76
2023/05/30 00:54:08;;;;;;;;;;;;;;;-144.98;100.00;62585.19;5053199;28;19920;-76
2023/05/30 00:57:12;;;;;;;;;;;;;;;-144.98;100.00;62585.19;5053340;28;20387;-76
2023/05/30 01:00:17;;;;;;;;;;;;;;;-144.98;100.00;62585.19;5040894;28;20327;-76
2023/05/30 01:03:24;;;;;;;;;;;;;;;-144.98;100.00;62585.19;5041619;28;20363;-75
2023/05/30 01:06:30;;;;;;;;;;;;;;;-144.98;100.00;62585.19;5054096;28;19959;-75
2023/05/30 01:09:33;;;;;;;;;;;;;;;-144.98;100.00;62585.19;5053009;28;19923;-75
2023/05/30 01:12:42;;;;;;;;;;;;;;;-144.98;100.00;62585.19;5052903;28;19976;-75
2023/05/30 01:15:52;;;;;;;;;;;;;;;-144.98;100.00;62585.19;5040836;28;19954;-75
2023/05/30 01:19:14;;;;;;;;;;;;;;;-144.98;100.00;62585.19;5053682;28;19918;-75
2023/05/30 01:22:26;;;;;;;;;;;;;;;-144.98;100.00;62585.19;5053526;28;19920;-75
2023/05/30 01:25:35;;;;;;;;;;;;;;;-144.98;100.00;62585.19;5040083;28;19924;-74
2023/05/30 01:28:38;;;;;;;;;;;;;;;-144.98;100.00;62585.19;5040660;28;19923;-74
2023/05/30 01:31:42;;;;;;;;;;;;;;;-144.98;100.00;62585.19;5052196;28;20059;-75
2023/05/30 01:34:45;;;;;;;;;;;;;;;-144.98;100.00;62585.19;5053176;28;19939;-75
2023/05/30 01:37:51;;;;;;;;;;;;;;;-144.98;100.00;62585.19;5040893;28;19997;-75
2023/05/30 01:40:56;;;;;;;;;;;;;;;-144.98;100.00;62585.19;5038666;28;19920;-75
2023/05/30 01:44:17;;;;;;;;;;;;;;;-144.98;100.00;62585.19;5019952;28;19983;-74
2023/05/30 01:47:29;;;;;;;;;;;;;;;-144.98;100.00;62585.19;5032246;28;19988;-73
2023/05/30 01:50:37;;;;;;;;;;;;;;;-144.98;100.00;62585.19;5021060;28;19923;-74
2023/05/30 01:53:42;;;;;;;;;;;;;;;-144.98;100.00;62585.19;5031972;28;19919;-74
2023/05/30 01:56:47;;;;;;;;;;;;;;;-144.98;100.00;62585.19;5032394;28;19967;-74
2023/05/30 01:59:52;;;;;;;;;;;;;;;-144.98;100.00;62585.19;5019868;28;19927;-74
2023/05/30 02:02:55;;;;;;;;;;;;;;;-144.98;100.00;62585.19;5020588;28;19967;-75
2023/05/30 02:06:00;;;;;;;;;;;;;;;-144.98;100.00;62585.19;5033205;28;19964;-75
2023/05/30 02:09:04;;;;;;;;;;;;;;;-144.98;100.00;62585.19;5020721;28;20032;-74
2023/05/30 02:12:07;;;;;;;;;;;;;;;-144.98;100.00;62585.19;5026297;28;20392;-75
2023/05/30 02:15:11;;;;;;;;;;;;;;;-144.98;100.00;62585.19;5025670;28;19951;-75
2023/05/30 02:18:14;;;;;;;;;;;;;;;-144.98;100.00;62585.19;5026624;28;19968;-75
2023/05/30 02:21:17;;;;;;;;;;;;;;;-144.98;100.00;62585.19;5039303;28;19959;-75
2023/05/30 02:24:21;;;;;;;;;;;;;;;-144.98;100.00;62585.19;5038421;28;19920;-75
2023/05/30 02:27:24;;;;;;;;;;;;;;;-144.98;100.00;62585.19;5038611;28;20040;-75
2023/05/30 02:30:29;;;;;;;;;;;;;;;-144.98;100.00;62585.19;5026421;28;19920;-74
2023/05/30 02:33:32;;;;;;;;;;;;;;;-144.98;100.00;62585.19;5039720;28;19919;-74
2023/05/30 02:36:38;;;;;;;;;;;;;;;-144.98;100.00;62585.19;5027442;28;20284;-74
2023/05/30 02:39:44;;;;;;;;;;;;;;;-144.98;100.00;62585.19;5026942;28;19936;-75
2023/05/30 02:42:49;;;;;;;;;;;;;;;-144.98;100.00;62585.19;5026306;28;20339;-75
2023/05/30 02:45:52;;;;;;;;;;;;;;;-144.98;100.00;62585.19;5026321;28;20004;-75
2023/05/30 02:48:56;;;;;;;;;;;;;;;-144.98;100.00;62585.19;5026420;28;20059;-75
2023/05/30 02:52:00;;;;;;;;;;;;;;;-144.98;100.00;62585.19;5026794;28;19920;-75
2023/05/30 02:55:09;;;;;;;;;;;;;;;-144.98;100.00;62585.19;5026332;28;19967;-75
2023/05/30 02:58:13;;;;;;;;;;;;;;;-144.98;100.00;62585.19;5038181;28;20399;-75
2023/05/30 03:01:33;;;;;;;;;;;;;;;-144.98;100.00;62585.19;5026123;28;20336;-75
2023/05/30 03:04:37;;;;;;;;;;;;;;;-144.98;100.00;62585.19;5026837;28;20284;-75
2023/05/30 03:07:40;;;;;;;;;;;;;;;-144.98;100.00;62585.19;5026181;28;20430;-74
2023/05/30 03:10:44;;;;;;;;;;;;;;;-144.98;100.00;62585.19;5026097;28;19920;-75
2023/05/30 03:13:48;;;;;;;;;;;;;;;-144.98;100.00;62585.19;5025321;28;19940;-75
2023/05/30 03:16:51;;;;;;;;;;;;;;;-144.98;100.00;62585.19;5014346;28;19924;-75
2023/05/30 03:19:55;;;;;;;;;;;;;;;-144.98;100.00;62585.19;5026701;28;19940;-75
2023/05/30 03:22:58;;;;;;;;;;;;;;;-144.98;100.00;62585.19;5023269;28;20280;-75
2023/05/30 03:26:06;;;;;;;;;;;;;;;-144.98;100.00;62585.19;5023801;28;20289;-75
2023/05/30 03:29:09;;;;;;;;;;;;;;;-144.98;100.00;62585.19;5022706;28;19971;-75
2023/05/30 03:32:12;;;;;;;;;;;;;;;-144.98;100.00;62585.19;5003090;28;20028;-75
2023/05/30 03:35:16;;;;;;;;;;;;;;;-144.98;100.00;62585.19;5003052;28;19920;-75
2023/05/30 03:38:20;;;;;;;;;;;;;;;-144.98;100.00;62585.19;5003653;28;19984;-74
2023/05/30 03:41:23;;;;;;;;;;;;;;;-144.98;100.00;62585.19;5015837;28;19959;-74
2023/05/30 03:44:27;;;;;;;;;;;;;;;-144.98;100.00;62585.19;5003469;28;19967;-74
2023/05/30 03:47:30;;;;;;;;;;;;;;;-144.98;100.00;62585.19;5015658;28;20349;-75
2023/05/30 03:50:37;;;;;;;;;;;;;;;-144.98;100.00;62585.19;5003182;28;19944;-75
2023/05/30 03:53:46;;;;;;;;;;;;;;;-144.98;100.00;62585.19;5002474;28;19936;-74
2023/05/30 03:56:49;;;;;;;;;;;;;;;-144.98;100.00;62585.19;5014389;28;20499;-74
2023/05/30 03:59:52;;;;;;;;;;;;;;;-144.98;100.00;62585.19;5013985;28;19967;-75
2023/05/30 04:02:58;;;;;;;;;;;;;;;-144.98;100.00;62585.19;5010867;28;19920;-75
2023/05/30 04:06:05;;;;;;;;;;;;;;;-144.98;100.00;62585.19;5014987;28;20452;-75
2023/05/30 04:09:09;;;;;;;;;;;;;;;-144.98;100.00;62585.19;5001730;28;19931;-76
2023/05/30 04:12:12;;;;;;;;;;;;;;;-144.98;100.00;62585.19;5016208;28;20080;-76
2023/05/30 04:15:16;;;;;;;;;;;;;;;-144.98;100.00;62585.19;5002031;28;19968;-70
2023/05/30 04:18:20;;;;;;;;;;;;;;;-144.98;100.00;62585.19;5014429;28;20374;-76
2023/05/30 04:21:23;;;;;;;;;;;;;;;-144.98;100.00;62585.19;5020564;28;19947;-75
2023/05/30 04:24:29;;;;;;;;;;;;;;;-144.98;100.00;62585.19;5053936;28;19939;-76
2023/05/30 04:27:34;;;;;;;;;;;;;;;-144.98;100.00;62585.19;5053689;28;19923;-76
2023/05/30 04:30:40;;;;;;;;;;;;;;;-144.98;100.00;62585.19;5042133;28;19999;-77
2023/05/30 04:33:48;;;;;;;;;;;;;;;-144.98;100.00;62585.19;5054273;28;19923;-73
2023/05/30 04:36:53;;;;;;;;;;;;;;;-144.98;100.00;62585.19;5049296;28;19923;-74
2023/05/30 04:39:57;;;;;;;;;;;;;;;-144.98;100.00;62585.19;5042234;28;19920;-76
2023/05/30 04:43:00;;;;;;;;;;;;;;;-144.98;100.00;62585.19;5041979;28;19982;-76
2023/05/30 04:46:04;;;;;;;;;;;;;;;-144.98;100.00;62585.19;5041969;28;19950;-76
2023/05/30 04:49:08;;;;;;;;;;;;;;;-144.98;100.00;62585.19;5041686;28;19923;-76
2023/05/30 04:52:10;;;;;;;;;;;;;;;-144.98;100.00;62585.19;5041645;28;19966;-76
2023/05/30 04:55:14;;;;;;;;;;;;;;;-144.98;100.00;62585.19;5054221;28;19920;-77
2023/05/30 04:58:18;;;;;;;;;;;;;;;-144.98;100.00;62585.19;5054063;28;19920;-76
2023/05/30 05:01:23;;;;;;;;;;;;;;;-144.98;100.00;62585.19;5054199;28;20430;-76
2023/05/30 05:04:26;;;;;;;;;;;;;;;-144.98;100.00;62585.19;5053926;28;20372;-75
2023/05/30 05:07:29;;;;;;;;;;;;;;;-144.98;100.00;62585.19;5053625;28;20387;-75
2023/05/30 05:10:33;;;;;;;;;;;;;;;-144.98;100.00;62585.19;5054026;28;20086;-75
2023/05/30 05:13:35;;;;;;;;;;;;;;;-144.98;100.00;62585.19;5053829;28;19923;-75
2023/05/30 05:16:39;;;;;;;;;;;;;;;-144.98;100.00;62585.19;5053617;28;19965;-77
2023/05/30 05:19:42;;;;;;;;;;;;;;;-144.98;100.00;62585.19;5054024;28;19923;-75
2023/05/30 05:22:45;;;;;;;;;;;;;;;-144.98;100.00;62585.19;5054016;28;19919;-76
2023/05/30 05:25:48;;;;;;;;;;;;;;;-144.98;100.00;62585.19;5053695;28;20013;-78
2023/05/30 05:28:51;;;;;;;;;;;;;;;-144.98;100.00;62585.19;5014015;28;19924;-79
2023/05/30 05:31:54;;;;;;;;;;;;;;;-144.98;100.00;62585.19;5014048;28;20389;-81
2023/05/30 05:34:57;;;;;;;;;;;;;;;-144.98;100.00;62585.19;5013927;28;19920;-82
2023/05/30 05:38:00;;;;;;;;;;;;;;;-144.98;100.00;62585.19;5015463;28;19935;-78
2023/05/30 05:41:03;;;;;;;;;;;;;;;-144.98;100.00;62585.19;5053492;28;19940;-78
2023/05/30 05:44:06;;;;;;;;;;;;;;;-144.98;100.00;62585.19;5053675;28;19958;-74
2023/05/30 05:47:09;;;;;;;;;;;;;;;-144.98;100.00;62585.19;5053147;28;20300;-76
2023/05/30 05:50:12;;;;;;;;;;;;;;;-144.98;100.00;62585.19;5053299;28;19975;-78
2023/05/30 05:53:15;;;;;;;;;;;;;;;-144.98;100.00;62585.19;5053348;28;20371;-80
2023/05/30 05:56:18;;;;;;;;;;;;;;;-144.98;100.00;62585.19;5041198;28;19939;-75
2023/05/30 05:59:21;;;;;;;;;;;;;;;-144.98;100.00;62585.19;5053466;28;19924;-75
2023/05/30 06:02:24;;;;;;;;;;;;;;;-144.98;100.00;62585.19;5053164;28;19936;-75
2023/05/30 06:05:27;;;;;;;;;;;;;;;-144.98;100.00;62585.19;5053023;28;19928;-76
2023/05/30 06:08:30;;;;;;;;;;;;;;;-144.98;100.00;62585.19;5052574;28;19931;-75
2023/05/30 06:11:33;;;;;;;;;;;;;;;-144.98;100.00;62585.19;5053143;28;19919;-76
2023/05/30 06:14:36;;;;;;;;;;;;;;;-144.98;100.00;62585.19;5053084;28;19927;-76
2023/05/30 06:17:39;;;;;;;;;;;;;;;-144.98;100.00;62585.19;5053372;28;19958;-75
2023/05/30 06:20:43;;;;;;;;;;;;;;;-144.98;100.00;62585.19;5053375;28;19955;-75
2023/05/30 06:23:45;;;;;;;;;;;;;;;-144.98;100.00;62585.19;5053029;28;19919;-75
2023/05/30 06:26:48;;;;;;;;;;;;;;;-144.98;100.00;62585.19;5053198;28;20012;-75
2023/05/30 06:29:52;;;;;;;;;;;;;;;-144.98;100.00;62585.19;5053065;28;19920;-75
2023/05/30 06:32:56;;;;;;;;;;;;;;;-144.98;100.00;62585.19;5053081;28;19994;-75
2023/05/30 06:35:59;;;;;;;;;;;;;;;-144.98;100.00;62585.19;5053025;28;19946;-76
2023/05/30 06:39:02;;;;;;;;;;;;;;;-144.98;100.00;62585.19;5053239;28;20003;-76
2023/05/30 06:42:13;;;;;;;;;;;;;;;-144.98;100.00;62585.19;5052892;28;20315;-76
2023/05/30 06:45:21;;;;;;;;;;;;;;;-144.98;100.00;62585.19;5053166;28;19935;-79
2023/05/30 06:48:24;;;;;;;;;;;;;;;-144.98;100.00;62585.19;5052681;28;20287;-75
2023/05/30 06:51:27;;;;;;;;;;;;;;;-144.98;100.00;62585.19;5052747;28;19920;-74
2023/05/30 06:54:34;;;;;;;;;;;;;;;-144.98;100.00;62585.19;5040433;28;19986;-76
2023/05/30 06:57:37;;;;;;;;;;;;;;;-144.98;100.00;62585.19;5042876;28;20003;-74
2023/05/30 07:00:41;;;;;;;;;;;;;;;-144.98;100.00;62585.19;5056525;28;19936;-75
2023/05/30 07:03:44;;;;;;;;;;;;;;;-144.98;100.00;62585.19;5056235;28;20462;-79
2023/05/30 07:06:48;;;;;;;;;;;;;;;-144.98;100.00;62585.19;5056273;28;19971;-80
2023/05/30 07:09:52;;;;;;;;;;;;;;;-144.98;100.00;62585.19;5056350;28;20296;-78
2023/05/30 07:12:55;;;;;;;;;;;;;;;-144.98;100.00;62585.19;5056297;28;19920;-80
2023/05/30 07:15:57;;;;;;;;;;;;;;;-144.98;100.00;62585.19;5056210;28;19936;-80
2023/05/30 07:19:01;;;;;;;;;;;;;;;-144.98;100.00;62585.19;5056291;28;19919;-81
2023/05/30 07:22:06;;;;;;;;;;;;;;;-144.98;100.00;62585.19;5043784;28;20028;-81
2023/05/30 07:25:10;;;;;;;;;;;;;;;-144.98;100.00;62585.19;5056138;28;19920;-84
2023/05/30 07:28:13;;;;;;;;;;;;;;;-144.98;100.00;62585.19;5056814;28;19939;-83
2023/05/30 07:31:16;;;;;;;;;;;;;;;-144.98;100.00;62585.19;5056923;28;20301;-84
2023/05/30 07:34:20;;;;;;;;;;;;;;;-144.98;100.00;62585.19;5056520;28;20007;-84
2023/05/30 07:37:23;;;;;;;;;;;;;;;-144.98;100.00;62585.19;5056908;28;20014;-81
2023/05/30 07:40:27;;;;;;;;;;;;;;;-144.98;100.00;62585.19;5056401;28;19921;-80
2023/05/30 07:43:30;;;;;;;;;;;;;;;-144.98;100.00;62585.19;5055643;28;19919;-79
2023/05/30 07:46:33;;;;;;;;;;;;;;;-144.98;100.00;62585.19;5055583;28;20021;-80
2023/05/30 07:49:36;;;;;;;;;;;;;;;-144.98;100.00;62585.19;5055644;28;20383;-79
2023/05/30 07:52:39;;;;;;;;;;;;;;;-144.98;100.00;62585.19;5055779;28;19967;-78
2023/05/30 07:55:42;;;;;;;;;;;;;;;-144.98;100.00;62585.19;5055713;28;20304;-83
2023/05/30 07:58:45;;;;;;;;;;;;;;;-144.98;100.00;62585.19;5055440;28;20387;-81
2023/05/30 08:01:49;;;;;;;;;;;;;;;-144.98;100.00;62585.19;5055293;28;19966;-84
2023/05/30 08:04:53;;;;;;;;;;;;;;;-144.98;100.00;62585.19;5055249;28;19923;-71
2023/05/30 08:07:55;;;;;;;;;;;;;;;-144.98;100.00;62585.19;5054508;28;19970;-71
2023/05/30 08:10:58;;;;;;;;;;;;;;;-144.98;100.00;62585.19;5055207;28;19919;-71
2023/05/30 08:14:03;;;;;;;;;;;;;;;-144.98;100.00;62585.19;5055193;28;20328;-70
2023/05/30 08:17:06;;;;;;;;;;;;;;;-144.98;100.00;62585.19;5055086;28;19939;-70
2023/05/30 08:20:12;;;;;;;;;;;;;;;-144.98;100.00;62585.19;5055396;28;19919;-70
2023/05/30 08:23:15;;;;;;;;;;;;;;;-144.98;100.00;62585.19;5054935;28;19919;-72
2023/05/30 08:26:18;;;;;;;;;;;;;;;-144.98;100.00;62585.19;5054845;28;20421;-72
2023/05/30 08:29:21;;;;;;;;;;;;;;;-144.98;100.00;62585.19;5054848;28;20019;-73
2023/05/30 08:32:24;;;;;;;;;;;;;;;-144.98;100.00;62585.19;5054760;28;19982;-73
2023/05/30 08:35:27;;;;;;;;;;;;;;;-144.98;100.00;62585.19;5054701;28;19920;-66
2023/05/30 08:38:31;;;;;;;;;;;;;;;-144.98;100.00;62585.19;5054873;28;20335;-65
2023/05/30 08:41:34;;;;;;;;;;;;;;;-144.98;100.00;62585.19;5054590;28;20363;-66
2023/05/30 08:44:37;;;;;;;;;;;;;;;-144.98;100.00;62585.19;5054928;28;20489;-66
2023/05/30 08:47:40;;;;;;;;;;;;;;;-144.98;100.00;62585.19;5054398;28;19924;-65
2023/05/30 08:50:46;;;;;;;;;;;;;;;-144.98;100.00;62585.19;5042041;28;19919;-80
2023/05/30 08:53:53;;;;;;;;;;;;;;;-144.98;100.00;62585.19;5054615;28;19988;-81
2023/05/30 08:57:13;;;;;;;;;;;;;;;-144.98;100.00;62585.19;5054319;28;19970;-78
2023/05/30 09:00:17;;;;;;;;;;;;;;;-144.98;100.00;62585.19;5054473;28;19920;-77
2023/05/30 09:03:23;;;;;;;;;;;;;;;-144.98;100.00;62585.19;5054246;28;19932;-80
2023/05/30 09:06:27;;;;;;;;;;;;;;;-144.98;100.00;62585.19;5034288;28;19928;-77
2023/05/30 09:09:32;;;;;;;;;;;;;;;-144.98;100.00;62585.19;5034138;28;19940;-75
2023/05/30 09:12:35;;;;;;;;;;;;;;;-144.98;100.00;62585.19;5033971;28;19967;-80
2023/05/30 09:15:39;;;;;;;;;;;;;;;-144.98;100.00;62585.19;5034032;28;20404;-80
2023/05/30 09:18:42;;;;;;;;;;;;;;;-144.98;100.00;62585.19;5034126;28;20328;-79
2023/05/30 09:21:45;;;;;;;;;;;;;;;-144.98;100.00;62585.19;5033128;28;19923;-78
2023/05/30 09:25:00;;;;;;;;;;;;;;;-144.98;100.00;62585.19;5033891;28;19958;-78
2023/05/30 09:28:03;;;;;;;;;;;;;;;-144.98;100.00;62585.19;5033638;28;19920;-78
2023/05/30 09:31:16;;;;;;;;;;;;;;;-144.98;100.00;62585.19;5033727;28;19987;-77
2023/05/30 09:34:20;;;;;;;;;;;;;;;-144.98;100.00;62585.19;5021582;28;20273;-77
2023/05/30 09:37:24;;;;;;;;;;;;;;;-144.98;100.00;62585.19;5033570;28;19964;-77
2023/05/30 09:40:30;;;;;;;;;;;;;;;-144.98;100.00;62585.19;5033747;28;19935;-77
2023/05/30 09:43:34;;;;;;;;;;;;;;;-144.98;100.00;62585.19;5033821;28;19944;-78
2023/05/30 09:46:37;;;;;;;;;;;;;;;-144.98;100.00;62585.19;5033444;28;20010;-78
2023/05/30 09:49:41;;;;;;;;;;;;;;;-144.98;100.00;62585.19;5033533;28;20003;-78
2023/05/30 09:52:48;;;;;;;;;;;;;;;-144.98;100.00;62585.19;5033352;28;19959;-78
2023/05/30 09:55:52;;;;;;;;;;;;;;;-144.98;100.00;62585.19;5033336;28;19967;-80
2023/05/30 09:59:06;;;;;;;;;;;;;;;-144.98;100.00;62585.19;5033400;28;19967;-82
2023/05/30 10:02:12;;;;;;;;;;;;;;;-144.98;100.00;62585.19;5033356;28;19919;-83
2023/05/30 10:05:20;;;;;;;;;;;;;;;-144.98;100.00;62585.19;5048047;28;19919;-80
2023/05/30 10:08:25;;;;;;;;;;;;;;;-144.98;100.00;62585.19;5053096;28;20434;-80
2023/05/30 10:11:28;;;;;;;;;;;;;;;-144.98;100.00;62585.19;5053185;28;19919;-81
2023/05/30 10:14:31;;;;;;;;;;;;;;;-144.98;100.00;62585.19;5053179;28;19939;-84
2023/05/30 10:17:36;;;;;;;;;;;;;;;-144.98;100.00;62585.19;5053193;28;19994;-81
2023/05/30 10:20:44;;;;;;;;;;;;;;;-144.98;100.00;62585.19;5053094;28;19920;-81
2023/05/30 10:23:48;;;;;;;;;;;;;;;-144.98;100.00;62585.19;5047841;28;20280;-84
2023/05/30 10:26:56;;;;;;;;;;;;;;;-144.98;100.00;62585.19;5052950;28;19923;-80
2023/05/30 10:30:06;;;;;;;;;;;;;;;-144.98;100.00;62585.19;5053321;28;19919;-81
2023/05/30 10:33:11;;;;;;;;;;;;;;;-144.98;100.00;62585.19;5056502;28;19936;-81
2023/05/30 10:36:13;;;;;;;;;;;;;;;-144.98;100.00;62585.19;5057226;28;19970;-83
2023/05/30 10:39:37;;;;;;;;;;;;;;;-144.98;100.00;62585.19;5056997;28;19944;-83
2023/05/30 10:42:46;;;;;;;;;;;;;;;-144.98;100.00;62585.19;5056890;28;19920;-87
2023/05/30 10:46:12;;;;;;;;;;;;;;;-144.98;100.00;62585.19;5056814;28;19920;-87
2023/05/30 10:49:26;;;;;;;;;;;;;;;-144.98;100.00;62585.19;5056292;28;20392;-85
2023/05/30 10:52:32;;;;;;;;;;;;;;;-144.98;100.00;62585.19;5049034;28;20020;-79
2023/05/30 10:55:35;;;;;;;;;;;;;;;-144.98;100.00;62585.19;5057018;28;20483;-83
2023/05/30 10:58:42;;;;;;;;;;;;;;;-144.98;100.00;62585.19;5056577;28;19965;-83
2023/05/30 11:01:59;;;;;;;;;;;;;;;-144.98;100.00;62585.19;5044168;28;19983;-77
2023/05/30 11:05:03;;;;;;;;;;;;;;;-144.98;100.00;62585.19;5056392;28;20335;-76
2023/05/30 11:08:06;;;;;;;;;;;;;;;-144.98;100.00;62585.19;5056295;28;19923;-77
2023/05/30 11:11:16;;;;;;;;;;;;;;;-144.98;100.00;62585.19;5056376;28;20327;-75
2023/05/30 11:14:23;;;;;;;;;;;;;;;-144.98;100.00;62585.19;5056320;28;20296;-71
2023/05/30 11:17:35;;;;;;;;;;;;;;;-144.98;100.00;62585.19;5056225;28;19919;-71
2023/05/30 11:20:50;;;;;;;;;;;;;;;-144.98;100.00;62585.19;5044227;28;19994;-77
2023/05/30 11:23:59;;;;;;;;;;;;;;;-144.98;100.00;62585.19;5056000;28;19920;-72
2023/05/30 11:27:15;;;;;;;;;;;;;;;-144.98;100.00;62585.19;5055902;28;19959;-72
2023/05/30 11:30:19;;;;;;;;;;;;;;;-144.98;100.00;62585.19;5056145;28;19959;-74
2023/05/30 11:33:23;;;;;;;;;;;;;;;-144.98;100.00;62585.19;5056101;28;19942;-73
2023/05/30 11:36:26;;;;;;;;;;;;;;;-144.98;100.00;62585.19;5055803;28;20296;-73
2023/05/30 11:39:36;;;;;;;;;;;;;;;-144.98;100.00;62585.19;5056266;28;20443;-74
2023/05/30 11:42:41;;;;;;;;;;;;;;;-144.98;100.00;62585.19;5042994;28;19923;-72
2023/05/30 11:45:46;;;;;;;;;;;;;;;-144.98;100.00;62585.19;5055672;28;20380;-71
2023/05/30 11:48:55;;;;;;;;;;;;;;;-144.98;100.00;62585.19;5055534;28;19974;-72
2023/05/30 11:51:58;;;;;;;;;;;;;;;-144.98;100.00;62585.19;5055444;28;19919;-72
2023/05/30 11:55:02;;;;;;;;;;;;;;;-144.98;100.00;62585.19;5051948;28;19924;-73
2023/05/30 11:58:05;;;;;;;;;;;;;;;-144.98;100.00;62585.19;5055685;28;20466;-73
2023/05/30 12:01:08;;;;;;;;;;;;;;;-144.98;100.00;62585.19;5054974;28;19939;-73
2023/05/30 12:04:12;;;;;;;;;;;;;;;-144.98;100.00;62585.19;5043038;28;19923;-73
2023/05/30 12:07:16;;;;;;;;;;;;;;;-144.98;100.00;62585.19;5055180;28;19972;-74
2023/05/30 12:10:29;;;;;;;;;;;;;;;-144.98;100.00;62585.19;5042964;28;19924;-73
2023/05/30 12:13:32;;;;;;;;;;;;;;;-144.98;100.00;62585.19;5055110;28;19920;-73
2023/05/30 12:16:35;;;;;;;;;;;;;;;-144.98;100.00;62585.19;5055090;28;19927;-73
2023/05/30 12:19:40;;;;;;;;;;;;;;;-144.98;100.00;62585.19;5055101;28;20392;-73
2023/05/30 12:22:44;;;;;;;;;;;;;;;-144.98;100.00;62585.19;5054910;28;19924;-72
2023/05/30 12:25:51;;;;;;;;;;;;;;;-144.98;100.00;62585.19;5054882;28;19920;-72
2023/05/30 12:28:54;;;;;;;;;;;;;;;-144.98;100.00;62585.19;5054745;28;19923;-72
2023/05/30 12:31:58;;;;;;;;;;;;;;;-144.98;100.00;62585.19;5055083;28;20000;-72
2023/05/30 12:35:01;;;;;;;;;;;;;;;-144.98;100.00;62585.19;5054763;28;19955;-70
2023/05/30 12:38:04;;;;;;;;;;;;;;;-144.98;100.00;62585.19;5054667;28;19920;-70
2023/05/30 12:41:07;;;;;;;;;;;;;;;-144.98;100.00;62585.19;5054699;28;19919;-70
2023/05/30 12:44:17;;;;;;;;;;;;;;;-144.98;100.00;62585.19;5054719;28;19919;-70
2023/05/30 12:47:20;;;;;;;;;;;;;;;-144.98;100.00;62585.19;5054530;28;20066;-70
2023/05/30 12:50:23;;;;;;;;;;;;;;;-144.98;100.00;62585.19;5054474;28;19920;-70
2023/05/30 12:53:27;;;;;;;;;;;;;;;-144.98;100.00;62585.19;5054442;28;19959;-70
2023/05/30 12:56:31;;;;;;;;;;;;;;;-144.98;100.00;62585.19;5054421;28;19924;-70
2023/05/30 12:59:34;;;;;;;;;;;;;;;-144.98;100.00;62585.19;5054583;28;19966;-70
2023/05/30 13:02:39;;;;;;;;;;;;;;;-144.98;100.00;62585.19;5054288;28;19920;-70
2023/05/30 13:05:47;;;;;;;;;;;;;;;-144.98;100.00;62585.19;5041592;28;19922;-70
2023/05/30 13:08:49;;;;;;;;;;;;;;;-144.98;100.00;62585.19;5054057;28;20391;-73
2023/05/30 13:11:53;;;;;;;;;;;;;;;-144.98;100.00;62585.19;5054118;28;19982;-73
2023/05/30 13:14:55;;;;;;;;;;;;;;;-144.98;100.00;62585.19;5053976;28;19919;-74
2023/05/30 13:17:58;;;;;;;;;;;;;;;-144.98;100.00;62585.19;5053971;28;19938;-73
2023/05/30 13:21:01;;;;;;;;;;;;;;;-144.98;100.00;62585.19;5050330;28;19919;-74
2023/05/30 13:24:05;;;;;;;;;;;;;;;-144.98;100.00;62585.19;5053904;28;19946;-73
2023/05/30 13:27:09;;;;;;;;;;;;;;;-144.98;100.00;62585.19;5053783;28;19970;-73
2023/05/30 13:30:13;;;;;;;;;;;;;;;-144.98;100.00;62585.19;5053731;28;19957;-73
2023/05/30 13:33:20;;;;;;;;;;;;;;;-144.98;100.00;62585.19;5041378;28;20392;-73
2023/05/30 13:36:25;;;;;;;;;;;;;;;-144.98;100.00;62585.19;5053889;28;19920;-74
2023/05/30 13:39:29;;;;;;;;;;;;;;;-144.98;100.00;62585.19;5053642;28;19920;-74
2023/05/30 13:42:33;;;;;;;;;;;;;;;-144.98;100.00;62585.19;5053833;28;20345;-74
2023/05/30 13:45:37;;;;;;;;;;;;;;;-144.98;100.00;62585.19;5053545;28;19958;-74
2023/05/30 13:48:40;;;;;;;;;;;;;;;-144.98;100.00;62585.19;5053461;28;19923;-74
2023/05/30 13:51:43;;;;;;;;;;;;;;;-144.98;100.00;62585.19;5053368;28;19920;-73
2023/05/30 13:54:46;;;;;;;;;;;;;;;-144.98;100.00;62585.19;5053361;28;19920;-74
2023/05/30 13:57:49;;;;;;;;;;;;;;;-144.98;100.00;62585.19;5053397;28;19935;-73
2023/05/30 14:00:53;;;;;;;;;;;;;;;-144.98;100.00;62585.19;5048863;28;19919;-73
2023/05/30 14:03:56;;;;;;;;;;;;;;;-144.98;100.00;62585.19;5053246;28;20388;-73
2023/05/30 14:07:00;;;;;;;;;;;;;;;-144.98;100.00;62585.19;5052632;28;19943;-73
2023/05/30 14:10:03;;;;;;;;;;;;;;;-144.98;100.00;62585.19;5053210;28;19995;-73
2023/05/30 14:13:06;;;;;;;;;;;;;;;-144.98;100.00;62585.19;5053186;28;19940;-73
2023/05/30 14:16:08;;;;;;;;;;;;;;;-144.98;100.00;62585.19;5053131;28;20019;-74
2023/05/30 14:19:11;;;;;;;;;;;;;;;-144.98;100.00;62585.19;5040798;28;19919;-74
2023/05/30 14:22:15;;;;;;;;;;;;;;;-144.98;100.00;62585.19;5052972;28;20379;-74
2023/05/30 14:25:17;;;;;;;;;;;;;;;-144.98;100.00;62585.19;5053103;28;19958;-75
2023/05/30 14:28:20;;;;;;;;;;;;;;;-144.98;100.00;62585.19;5052966;28;19940;-75
2023/05/30 14:31:23;;;;;;;;;;;;;;;-144.98;100.00;62585.19;5053293;28;19966;-75
2023/05/30 14:34:26;;;;;;;;;;;;;;;-144.98;100.00;62585.19;5052971;28;19939;-73
2023/05/30 14:37:29;;;;;;;;;;;;;;;-144.98;100.00;62585.19;5052905;28;19938;-73
2023/05/30 14:40:32;;;;;;;;;;;;;;;-144.98;100.00;62585.19;5052954;28;19923;-73
2023/05/30 14:43:35;;;;;;;;;;;;;;;-144.98;100.00;62585.19;5052820;28;20331;-73
2023/05/30 14:46:40;;;;;;;;;;;;;;;-144.98;100.00;62585.19;5052727;28;19928;-72
2023/05/30 14:49:44;;;;;;;;;;;;;;;-144.98;100.00;62585.19;5052752;28;19920;-73
2023/05/30 14:52:47;;;;;;;;;;;;;;;-144.98;100.00;62585.19;5053257;28;20006;-73
2023/05/30 14:55:49;;;;;;;;;;;;;;;-144.98;100.00;62585.19;5052726;28;19971;-73
2023/05/30 14:58:52;;;;;;;;;;;;;;;-144.98;100.00;62585.19;5052963;28;19966;-73
2023/05/30 15:01:55;;;;;;;;;;;;;;;-144.98;100.00;62585.19;5052588;28;20013;-73
2023/05/30 15:04:58;;;;;;;;;;;;;;;-144.98;100.00;62585.19;5048373;28;20396;-73
2023/05/30 15:08:02;;;;;;;;;;;;;;;-144.98;100.00;62585.19;5052572;28;19924;-73
2023/05/30 15:11:05;;;;;;;;;;;;;;;-144.98;100.00;62585.19;5049507;28;20410;-73
2023/05/30 15:14:07;;;;;;;;;;;;;;;-144.98;100.00;62585.19;5052555;28;19958;-72
2023/05/30 15:17:11;;;;;;;;;;;;;;;-144.98;100.00;62585.19;5040500;28;19919;-73
2023/05/30 15:20:14;;;;;;;;;;;;;;;-144.98;100.00;62585.19;5056096;28;19924;-73
2023/05/30 15:23:17;;;;;;;;;;;;;;;-144.98;100.00;62585.19;5056115;28;19966;-75
2023/05/30 15:26:21;;;;;;;;;;;;;;;-144.98;100.00;62585.19;5056061;28;19966;-76